Time;durP1;ratioP1;P1;durP2;ratioP2;P2;SDS_P1;SDS_P2;PMS_P1;PMS_P2;Temp;Humidity;BMP_temperature;BMP_pressure;BME280_temperature;BME280_humidity;BME280_pressure;Samples;Min_cycle;Max_cycle;Signal;HPM_P1;HPM_P2
2021/11/27 00:00:41;;;;;;;86.68;38.92;;;;;;;7.99;90.28;98847.69;5038294;28;20029;-74
2021/11/27 00:03:07;;;;;;;83.63;36.58;;;;;;;8.13;89.02;98860.19;5044795;28;20037;-76
2021/11/27 00:05:34;;;;;;;91.57;37.22;;;;;;;8.08;89.74;98857.25;5040632;28;20200;-76
2021/11/27 00:08:01;;;;;;;90.80;36.40;;;;;;;8.02;89.98;98856.09;5043997;28;20303;-76
2021/11/27 00:10:29;;;;;;;86.10;36.38;;;;;;;7.97;90.30;98836.50;5046345;28;20040;-74
2021/11/27 00:12:56;;;;;;;95.88;38.20;;;;;;;8.06;89.88;98824.13;5054505;28;20044;-74
2021/11/27 00:15:23;;;;;;;91.47;37.58;;;;;;;8.17;89.33;98810.59;5054983;28;20064;-76
2021/11/27 00:17:49;;;;;;;90.38;36.58;;;;;;;8.21;88.79;98806.63;5052418;28;20045;-75
2021/11/27 00:20:19;;;;;;;91.60;39.60;;;;;;;8.20;88.29;98818.16;5052475;28;20036;-76
2021/11/27 00:22:45;;;;;;;93.22;38.28;;;;;;;8.12;88.89;98808.44;5055689;28;20051;-76
2021/11/27 00:25:12;;;;;;;88.65;36.88;;;;;;;8.08;89.98;98820.31;5060078;28;20056;-77
2021/11/27 00:27:38;;;;;;;89.75;39.05;;;;;;;8.00;90.06;98815.06;5055383;28;20374;-75
2021/11/27 00:30:08;;;;;;;89.82;36.95;;;;;;;8.06;89.65;98830.22;5045166;28;20060;-74
2021/11/27 00:32:34;;;;;;;87.05;36.72;;;;;;;8.14;89.52;98835.47;5055374;28;20039;-74
2021/11/27 00:34:59;;;;;;;93.10;38.70;;;;;;;7.89;90.31;98834.69;5052883;28;20216;-76
2021/11/27 00:37:25;;;;;;;102.00;40.35;;;;;;;7.99;90.60;98831.88;5055861;28;20071;-76
2021/11/27 00:39:50;;;;;;;101.00;39.63;;;;;;;8.08;90.10;98832.69;5043914;28;20245;-75
2021/11/27 00:42:16;;;;;;;86.55;37.00;;;;;;;7.93;91.01;98828.09;5043493;28;20040;-73
2021/11/27 00:44:41;;;;;;;91.53;37.47;;;;;;;8.06;90.49;98837.31;5046459;28;20210;-75
2021/11/27 00:47:07;;;;;;;100.10;38.78;;;;;;;8.09;89.79;98835.16;5053931;28;20302;-74
2021/11/27 00:49:32;;;;;;;92.03;38.58;;;;;;;8.13;90.10;98848.81;5045753;28;20037;-75
2021/11/27 00:52:01;;;;;;;86.05;38.85;;;;;;;8.08;90.74;98838.78;5047767;28;20056;-75
2021/11/27 00:54:27;;;;;;;86.70;37.30;;;;;;;8.03;90.43;98833.19;5055553;28;20048;-74
2021/11/27 00:56:52;;;;;;;87.60;37.85;;;;;;;8.07;90.39;98834.50;5052493;28;20049;-75
2021/11/27 00:59:18;;;;;;;80.45;34.60;;;;;;;8.13;90.44;98833.84;5063369;28;20038;-75
2021/11/27 01:01:45;;;;;;;85.85;36.20;;;;;;;8.20;90.12;98826.88;5057785;28;20335;-76
2021/11/27 01:04:11;;;;;;;101.25;39.20;;;;;;;7.94;91.01;98850.00;5057961;28;20078;-75
2021/11/27 01:06:37;;;;;;;100.78;39.08;;;;;;;7.91;91.25;98834.53;5058237;28;20044;-76
2021/11/27 01:09:10;;;;;;;96.18;37.38;;;;;;;8.04;91.62;98839.28;5043164;28;20043;-74
2021/11/27 01:11:42;;;;;;;101.35;39.08;;;;;;;8.01;91.42;98851.81;5043644;28;20045;-76
2021/11/27 01:14:11;;;;;;;97.13;38.38;;;;;;;7.96;91.68;98848.84;5044609;28;20034;-75
2021/11/27 01:16:39;;;;;;;102.10;41.28;;;;;;;7.89;91.96;98873.41;5048901;28;20040;-74
2021/11/27 01:19:06;;;;;;;135.18;46.08;;;;;;;7.83;93.03;98845.09;5047201;28;20064;-74
2021/11/27 01:21:35;;;;;;;130.40;44.28;;;;;;;8.05;91.95;98833.84;5042615;28;20041;-76
2021/11/27 01:24:04;;;;;;;111.15;40.97;;;;;;;8.02;92.02;98826.28;5043846;28;20239;-76
2021/11/27 01:26:31;;;;;;;98.03;39.65;;;;;;;8.12;91.65;98829.53;5050424;28;20041;-76
2021/11/27 01:28:56;;;;;;;105.47;39.53;;;;;;;8.22;91.21;98846.00;5044128;28;20318;-76
2021/11/27 01:31:22;;;;;;;119.35;43.13;;;;;;;7.90;92.00;98856.59;5047419;28;20021;-75
2021/11/27 01:33:48;;;;;;;109.90;40.10;;;;;;;8.05;92.08;98860.22;5052118;28;20040;-74
2021/11/27 01:36:14;;;;;;;109.28;42.00;;;;;;;7.98;92.33;98861.88;5044916;28;20384;-75
2021/11/27 01:38:39;;;;;;;114.97;39.88;;;;;;;7.86;93.25;98876.38;5052396;28;20052;-76
2021/11/27 01:41:05;;;;;;;115.88;41.67;;;;;;;7.99;92.96;98887.25;5044280;28;20033;-74
2021/11/27 01:43:34;;;;;;;105.00;38.28;;;;;;;8.17;92.34;98879.13;5043384;28;20033;-75
2021/11/27 01:45:59;;;;;;;109.60;39.53;;;;;;;8.14;92.30;98861.03;5053841;28;20033;-75
2021/11/27 01:48:25;;;;;;;101.22;39.97;;;;;;;8.10;92.37;98849.97;5051396;28;20071;-75
2021/11/27 01:50:59;;;;;;;97.95;38.38;;;;;;;7.99;92.54;98848.53;5061659;28;20337;-76
2021/11/27 01:53:28;;;;;;;122.07;44.10;;;;;;;7.75;94.21;98834.56;5060046;28;20096;-75
2021/11/27 01:55:56;;;;;;;117.82;42.92;;;;;;;7.67;94.85;98856.47;5043766;28;20045;-74
2021/11/27 01:58:24;;;;;;;104.43;41.47;;;;;;;7.61;95.80;98854.47;5043063;28;20026;-75
2021/11/27 02:00:53;;;;;;;116.53;40.88;;;;;;;7.69;95.31;98851.84;5041550;28;20053;-75
2021/11/27 02:03:19;;;;;;;117.72;42.67;;;;;;;7.98;93.40;98860.06;5042325;28;20017;-76
2021/11/27 02:05:45;;;;;;;123.22;41.50;;;;;;;7.81;94.67;98857.59;5046807;28;20029;-76
2021/11/27 02:08:11;;;;;;;121.43;42.55;;;;;;;8.06;93.29;98868.94;5043551;28;20091;-76
2021/11/27 02:10:36;;;;;;;141.90;43.45;;;;;;;7.91;93.72;98853.81;5042772;28;20295;-75
2021/11/27 02:13:02;;;;;;;132.13;44.35;;;;;;;7.57;95.26;98864.53;5041879;28;20108;-73
2021/11/27 02:15:27;;;;;;;116.20;41.58;;;;;;;7.66;95.28;98839.84;5047932;28;20025;-75
2021/11/27 02:17:53;;;;;;;115.93;44.33;;;;;;;7.76;94.98;98844.09;5053778;28;20332;-75
2021/11/27 02:20:19;;;;;;;125.53;44.85;;;;;;;7.64;95.57;98846.25;5056253;28;20036;-74
2021/11/27 02:22:45;;;;;;;111.78;41.72;;;;;;;7.75;95.13;98853.81;5061261;28;20212;-74
2021/11/27 02:25:17;;;;;;;115.47;41.55;;;;;;;7.97;93.96;98862.88;5057844;28;20035;-75
2021/11/27 02:27:45;;;;;;;116.03;41.67;;;;;;;8.02;93.33;98860.53;5056198;28;20342;-75
2021/11/27 02:30:13;;;;;;;118.10;42.97;;;;;;;7.99;93.62;98868.78;5061373;28;20062;-75
2021/11/27 02:32:39;;;;;;;130.05;45.40;;;;;;;8.02;93.88;98879.00;5052132;28;20060;-74
2021/11/27 02:35:05;;;;;;;113.82;41.38;;;;;;;8.17;92.89;98877.31;5049469;28;20043;-74
2021/11/27 02:37:31;;;;;;;118.43;41.28;;;;;;;8.19;92.53;98869.25;5050402;28;20034;-75
2021/11/27 02:39:56;;;;;;;109.82;40.70;;;;;;;8.22;91.26;98868.91;5045680;28;20037;-76
2021/11/27 02:42:22;;;;;;;145.15;44.55;;;;;;;8.04;92.41;98857.75;5053014;28;20033;-74
2021/11/27 02:44:48;;;;;;;119.18;43.83;;;;;;;7.74;93.82;98854.81;5046903;28;20041;-75
2021/11/27 02:47:13;;;;;;;117.68;42.28;;;;;;;7.47;95.95;98852.50;5048991;28;20044;-76
2021/11/27 02:49:39;;;;;;;115.45;41.55;;;;;;;7.54;96.06;98866.66;5049819;28;20052;-76
2021/11/27 02:52:05;;;;;;;118.55;41.63;;;;;;;7.56;96.49;98857.63;5055727;28;20051;-76
2021/11/27 02:54:32;;;;;;;113.32;39.78;;;;;;;7.77;96.21;98866.84;5060385;28;20028;-74
2021/11/27 02:56:58;;;;;;;100.70;38.42;;;;;;;7.73;95.46;98860.25;5054306;28;20025;-74
2021/11/27 02:59:27;;;;;;;104.82;38.10;;;;;;;7.72;95.95;98874.41;5066463;28;20315;-75
2021/11/27 03:01:56;;;;;;;117.18;41.33;;;;;;;7.93;94.92;98872.91;5040687;28;20029;-76
2021/11/27 03:04:23;;;;;;;129.40;45.90;;;;;;;7.65;95.81;98864.53;5041396;28;20357;-76
2021/11/27 03:06:49;;;;;;;111.72;42.88;;;;;;;7.69;96.00;98878.19;5049170;28;20029;-75
2021/11/27 03:09:16;;;;;;;122.53;44.83;;;;;;;7.87;94.94;98859.56;5051643;28;20021;-74
2021/11/27 03:11:49;;;;;;;115.10;41.67;;;;;;;7.90;95.12;98852.16;5052927;28;20029;-76
2021/11/27 03:14:15;;;;;;;161.77;48.83;;;;;;;7.90;94.48;98836.34;5060317;28;20040;-75
2021/11/27 03:16:41;;;;;;;119.93;44.17;;;;;;;8.07;93.50;98847.69;5044629;28;20028;-76
2021/11/27 03:19:06;;;;;;;135.60;44.53;;;;;;;8.07;93.61;98860.88;5054287;28;20033;-74
2021/11/27 03:21:32;;;;;;;121.35;42.65;;;;;;;7.96;94.49;98869.13;5059313;28;20048;-74
2021/11/27 03:23:58;;;;;;;118.85;41.05;;;;;;;8.02;94.85;98866.66;5052015;28;20013;-76
2021/11/27 03:26:24;;;;;;;120.53;43.15;;;;;;;8.00;94.27;98873.06;5051735;28;20041;-76
2021/11/27 03:28:50;;;;;;;130.80;45.55;;;;;;;8.09;94.09;98872.06;5049590;28;20059;-75
2021/11/27 03:31:16;;;;;;;127.28;44.67;;;;;;;8.09;93.99;98866.78;5051999;28;20056;-75
2021/11/27 03:33:42;;;;;;;112.65;41.80;;;;;;;8.20;93.56;98892.81;5045809;28;20327;-75
2021/11/27 03:36:08;;;;;;;117.28;43.08;;;;;;;8.06;93.56;98848.69;5043121;28;20040;-74
2021/11/27 03:38:34;;;;;;;131.13;45.35;;;;;;;8.28;93.06;98881.44;5059688;28;20021;-74
2021/11/27 03:41:02;;;;;;;132.48;45.88;;;;;;;8.32;91.52;98893.28;5060046;28;20394;-76
2021/11/27 03:43:28;;;;;;;127.72;43.45;;;;;;;8.11;93.13;98879.81;5042703;28;20467;-76
2021/11/27 03:45:53;;;;;;;128.43;47.30;;;;;;;8.25;93.32;98887.88;5048192;28;20817;-74
2021/11/27 03:48:31;;;;;;;123.38;46.97;;;;;;;8.18;93.56;98889.53;5056219;28;20087;-75
2021/11/27 03:50:59;;;;;;;162.02;49.63;;;;;;;8.24;93.77;98888.03;5059772;28;20065;-76
2021/11/27 03:53:28;;;;;;;133.30;46.25;;;;;;;8.31;93.20;98892.47;5055502;28;20084;-76
2021/11/27 03:55:55;;;;;;;129.27;45.67;;;;;;;8.37;92.83;98874.38;5059699;28;20088;-76
2021/11/27 03:58:21;;;;;;;140.88;49.88;;;;;;;8.14;93.33;98876.84;5059838;28;20344;-75
2021/11/27 04:00:48;;;;;;;140.73;53.13;;;;;;;8.18;93.40;98891.34;5045891;28;20101;-74
2021/11/27 04:03:16;;;;;;;144.32;51.33;;;;;;;8.13;94.26;98872.56;5055922;28;20025;-75
2021/11/27 04:05:48;;;;;;;165.43;56.92;;;;;;;8.31;93.00;98879.28;5053244;28;20252;-75
2021/11/27 04:08:14;;;;;;;143.23;49.88;;;;;;;8.25;93.51;98887.03;5049438;28;20226;-76
2021/11/27 04:10:40;;;;;;;138.73;47.22;;;;;;;8.16;94.24;98882.78;5044920;28;20025;-76
2021/11/27 04:13:05;;;;;;;138.02;45.58;;;;;;;8.24;93.43;98874.84;5043742;28;20075;-75
2021/11/27 04:15:31;;;;;;;139.32;47.78;;;;;;;8.32;93.21;98873.03;5044430;28;20378;-75
2021/11/27 04:17:56;;;;;;;129.73;43.67;;;;;;;8.18;93.54;98886.88;5045664;28;20370;-76
2021/11/27 04:20:22;;;;;;;142.32;44.97;;;;;;;8.35;92.98;98882.47;5046529;28;20345;-75
2021/11/27 04:22:47;;;;;;;126.22;46.08;;;;;;;8.13;93.42;98872.56;5049115;28;20025;-74
2021/11/27 04:25:14;;;;;;;130.02;44.92;;;;;;;8.31;93.18;98876.63;5043435;28;20079;-73
2021/11/27 04:27:39;;;;;;;125.30;44.08;;;;;;;8.28;93.19;98887.53;5042690;28;20132;-74
2021/11/27 04:30:07;;;;;;;122.40;45.03;;;;;;;8.36;92.72;98885.91;5046509;28;20238;-75
2021/11/27 04:32:33;;;;;;;137.10;44.83;;;;;;;8.18;93.28;98883.44;5045649;28;20381;-75
2021/11/27 04:34:58;;;;;;;159.73;48.05;;;;;;;8.20;92.69;98889.34;5043870;28;20017;-75
2021/11/27 04:37:24;;;;;;;140.45;45.80;;;;;;;8.22;94.40;98884.75;5044000;28;20022;-75
2021/11/27 04:39:50;;;;;;;139.18;50.03;;;;;;;8.31;93.89;98886.38;5043974;28;20033;-75
2021/11/27 04:42:16;;;;;;;147.60;50.60;;;;;;;8.39;92.71;98872.41;5053866;28;20029;-74
2021/11/27 04:44:41;;;;;;;125.60;46.30;;;;;;;8.22;93.04;98885.56;5051578;28;20250;-75
2021/11/27 04:47:07;;;;;;;135.82;45.13;;;;;;;8.06;93.64;98868.94;5055869;28;20036;-75
2021/11/27 04:49:32;;;;;;;131.93;45.13;;;;;;;8.01;94.13;98894.00;5063028;28;20052;-75
2021/11/27 04:51:58;;;;;;;149.40;45.10;;;;;;;8.02;94.50;98884.28;5053271;28;20075;-74
2021/11/27 04:54:23;;;;;;;141.93;46.00;;;;;;;7.87;95.49;98913.13;5044655;28;20266;-75
2021/11/27 04:56:49;;;;;;;145.07;47.22;;;;;;;7.83;96.05;98903.88;5055181;28;20242;-75
2021/11/27 04:59:14;;;;;;;147.40;45.38;;;;;;;7.85;95.81;98901.91;5063209;28;20052;-76
2021/11/27 05:01:40;;;;;;;134.73;46.70;;;;;;;8.02;95.99;98910.63;5050096;28;20056;-76
2021/11/27 05:04:05;;;;;;;144.43;46.67;;;;;;;8.17;94.78;98914.25;5054660;28;20096;-73
2021/11/27 05:06:31;;;;;;;129.23;44.60;;;;;;;8.00;96.28;98887.06;5047745;28;20537;-74
2021/11/27 05:08:56;;;;;;;138.07;47.38;;;;;;;8.07;95.29;98903.06;5054189;28;20037;-74
2021/11/27 05:11:22;;;;;;;152.80;48.78;;;;;;;8.13;94.19;98926.13;5045487;28;20043;-75
2021/11/27 05:13:48;;;;;;;159.43;49.05;;;;;;;8.25;93.89;98908.97;5056635;28;20310;-75
2021/11/27 05:16:13;;;;;;;171.95;50.58;;;;;;;8.16;94.42;98902.06;5055625;28;20104;-74
2021/11/27 05:18:40;;;;;;;133.02;44.72;;;;;;;8.11;93.84;98914.91;5045440;28;20295;-75
2021/11/27 05:21:07;;;;;;;165.40;46.83;;;;;;;8.10;94.90;98931.72;5043713;28;20029;-76
2021/11/27 05:23:32;;;;;;;156.43;48.10;;;;;;;7.98;95.10;98922.50;5050118;28;20031;-75
2021/11/27 05:25:58;;;;;;;138.18;46.80;;;;;;;8.02;94.42;98966.81;5050998;28;20033;-75
2021/11/27 05:28:23;;;;;;;155.70;49.45;;;;;;;7.82;96.23;98948.84;5054388;28;20055;-74
2021/11/27 05:30:49;;;;;;;137.55;46.33;;;;;;;7.90;95.07;98935.69;5045112;28;20038;-74
2021/11/27 05:33:16;;;;;;;143.27;46.63;;;;;;;7.97;95.15;98949.84;5056591;28;20035;-75
2021/11/27 05:35:42;;;;;;;135.93;45.72;;;;;;;7.74;97.09;98938.31;5062212;28;20066;-76
2021/11/27 05:38:09;;;;;;;144.00;46.70;;;;;;;7.56;97.18;98972.72;5055286;28;20096;-75
2021/11/27 05:40:36;;;;;;;150.70;52.92;;;;;;;7.53;99.08;98976.50;5043579;28;20032;-74
2021/11/27 05:43:01;;;;;;;147.43;48.60;;;;;;;7.93;96.42;98964.34;5042525;28;20049;-74
2021/11/27 05:45:29;;;;;;;155.32;49.22;;;;;;;7.89;96.33;98969.13;5052355;28;20024;-75
2021/11/27 05:48:02;;;;;;;144.38;47.65;;;;;;;7.96;96.40;98977.22;5051516;28;20041;-75
2021/11/27 05:50:28;;;;;;;161.07;49.55;;;;;;;7.81;96.90;98990.19;5062151;28;20230;-75
2021/11/27 05:52:54;;;;;;;154.93;48.45;;;;;;;7.74;97.35;98970.75;5063346;28;20044;-74
2021/11/27 05:55:21;;;;;;;200.05;53.72;;;;;;;7.77;97.72;98962.53;5063580;28;20192;-75
2021/11/27 05:57:48;;;;;;;168.35;51.70;;;;;;;7.99;95.58;98971.59;5063387;28;20041;-76
2021/11/27 06:00:15;;;;;;;157.85;53.20;;;;;;;8.06;95.09;98972.59;5063316;28;20151;-75
2021/11/27 06:02:41;;;;;;;160.65;52.45;;;;;;;8.04;95.12;98985.13;5063138;28;20036;-75
2021/11/27 06:05:07;;;;;;;140.88;49.70;;;;;;;8.10;95.60;98984.47;5063409;28;20029;-75
2021/11/27 06:07:32;;;;;;;143.73;50.55;;;;;;;8.30;94.57;99019.22;5063033;28;20044;-74
2021/11/27 06:09:58;;;;;;;144.63;55.88;;;;;;;8.25;94.89;99018.91;5063202;28;20036;-75
2021/11/27 06:12:23;;;;;;;160.85;51.67;;;;;;;8.25;94.49;99022.38;5063138;28;20238;-76
2021/11/27 06:14:49;;;;;;;152.27;48.38;;;;;;;8.37;94.30;99012.38;5061978;28;20020;-75
2021/11/27 06:17:14;;;;;;;146.07;48.35;;;;;;;8.29;94.39;99015.78;5061758;28;20043;-74
2021/11/27 06:19:40;;;;;;;167.25;55.60;;;;;;;8.34;94.01;99014.53;5062906;28;20028;-75
2021/11/27 06:22:05;;;;;;;163.27;56.30;;;;;;;8.17;94.48;99025.00;5062580;28;20041;-75
2021/11/27 06:24:30;;;;;;;156.52;51.45;;;;;;;7.90;96.14;99034.03;5062576;28;20218;-75
2021/11/27 06:26:56;;;;;;;150.48;51.00;;;;;;;7.93;96.64;99052.16;5062714;28;20045;-76
2021/11/27 06:29:21;;;;;;;136.93;46.80;;;;;;;8.06;95.49;99051.69;5062820;28;20025;-75
2021/11/27 06:31:47;;;;;;;134.73;51.90;;;;;;;8.10;95.93;99068.84;5062597;28;20037;-75
2021/11/27 06:34:14;;;;;;;117.47;45.90;;;;;;;8.05;96.48;99071.13;5058345;28;20277;-74
2021/11/27 06:36:39;;;;;;;118.88;45.22;;;;;;;8.13;96.05;99057.13;5052073;28;20033;-74
2021/11/27 06:39:05;;;;;;;121.43;45.53;;;;;;;8.28;95.70;99058.97;5058719;28;20037;-76
2021/11/27 06:41:30;;;;;;;152.73;53.22;;;;;;;8.20;94.82;99051.06;5061536;28;20077;-75
2021/11/27 06:43:55;;;;;;;142.25;50.05;;;;;;;8.33;94.80;99047.97;5048567;28;20064;-74
2021/11/27 06:46:21;;;;;;;156.30;52.22;;;;;;;8.26;94.87;99042.47;5043954;28;20120;-75
2021/11/27 06:48:46;;;;;;;148.98;49.47;;;;;;;8.18;95.00;99042.47;5052270;28;20092;-76
2021/11/27 06:51:14;;;;;;;163.55;51.22;;;;;;;8.30;95.27;99024.50;5051864;28;20041;-75
2021/11/27 06:53:40;;;;;;;126.22;44.67;;;;;;;8.32;95.21;99027.81;5046298;28;20104;-75
2021/11/27 06:56:05;;;;;;;112.32;40.65;;;;;;;8.32;95.26;99020.75;5045325;28;20025;-75
2021/11/27 06:58:31;;;;;;;123.75;39.45;;;;;;;8.27;94.93;99030.13;5050277;28;20150;-74
2021/11/27 07:00:56;;;;;;;120.45;41.78;;;;;;;8.13;95.25;99025.50;5049412;28;20082;-74
2021/11/27 07:03:22;;;;;;;132.07;42.88;;;;;;;8.03;96.66;99009.84;5052792;28;20056;-75
2021/11/27 07:05:47;;;;;;;132.38;41.88;;;;;;;8.34;95.07;99012.69;5060594;28;20040;-75
2021/11/27 07:08:13;;;;;;;111.63;40.53;;;;;;;8.50;94.62;99043.53;5055534;28;20033;-76
2021/11/27 07:10:38;;;;;;;119.07;42.67;;;;;;;8.76;93.45;99045.97;5061115;28;20037;-75
2021/11/27 07:13:04;;;;;;;124.65;41.40;;;;;;;8.57;93.86;99031.31;5057897;28;20049;-74
2021/11/27 07:15:29;;;;;;;114.88;40.50;;;;;;;8.75;93.64;99039.88;5051848;28;20342;-76
2021/11/27 07:17:54;;;;;;;111.32;40.55;;;;;;;8.86;92.80;99044.81;5048237;28;20131;-75
2021/11/27 07:20:20;;;;;;;90.57;35.05;;;;;;;8.87;91.68;99048.25;5047058;28;20090;-76
2021/11/27 07:22:46;;;;;;;70.68;28.15;;;;;;;8.82;91.69;99075.16;5058206;28;20045;-75
2021/11/27 07:25:11;;;;;;;66.30;27.88;;;;;;;8.77;92.16;99068.75;5052175;28;20025;-74
2021/11/27 07:27:37;;;;;;;71.57;28.45;;;;;;;8.91;91.28;99071.53;5042064;28;20037;-74
2021/11/27 07:30:05;;;;;;;84.35;31.33;;;;;;;8.89;90.92;99075.31;5050787;28;20036;-74
2021/11/27 07:32:30;;;;;;;96.07;34.00;;;;;;;8.71;91.76;99077.31;5060203;28;20104;-75
2021/11/27 07:34:56;;;;;;;82.28;31.98;;;;;;;8.65;92.15;99081.47;5053297;28;20357;-74
2021/11/27 07:37:21;;;;;;;73.10;29.33;;;;;;;8.76;92.00;99075.00;5046119;28;20219;-74
2021/11/27 07:39:46;;;;;;;69.32;28.20;;;;;;;8.93;90.25;99077.47;5049022;28;20036;-75
2021/11/27 07:42:12;;;;;;;71.15;26.52;;;;;;;8.89;90.70;99072.69;5045352;28;20056;-75
2021/11/27 07:44:37;;;;;;;62.08;26.13;;;;;;;8.94;90.18;99079.09;5047349;28;20365;-75
2021/11/27 07:47:03;;;;;;;64.25;26.38;;;;;;;8.94;89.34;99063.28;5046362;28;20041;-74
2021/11/27 07:49:28;;;;;;;70.03;28.05;;;;;;;8.90;89.79;99058.50;5044390;28;20097;-74
2021/11/27 07:51:54;;;;;;;66.05;26.27;;;;;;;9.05;89.23;99061.25;5044917;28;20219;-75
2021/11/27 07:54:20;;;;;;;67.45;27.67;;;;;;;8.88;90.37;99073.69;5047980;28;20055;-75
2021/11/27 07:56:46;;;;;;;69.13;27.73;;;;;;;8.71;90.61;99027.19;5055638;28;20083;-73
2021/11/27 07:59:12;;;;;;;63.33;26.08;;;;;;;8.96;89.91;99056.00;5055429;28;20071;-74
2021/11/27 08:01:37;;;;;;;62.72;26.98;;;;;;;8.92;89.79;99048.59;5048204;28;20030;-74
2021/11/27 08:04:03;;;;;;;179.00;46.80;;;;;;;8.99;88.59;99061.94;5051342;28;20029;-74
2021/11/27 08:06:29;;;;;;;81.68;31.20;;;;;;;8.98;88.77;99044.44;5047924;28;20032;-74
2021/11/27 08:08:54;;;;;;;78.32;30.13;;;;;;;8.45;92.11;99036.13;5047902;28;20025;-73
2021/11/27 08:11:21;;;;;;;110.80;42.78;;;;;;;8.37;93.18;99049.31;5052487;28;20029;-73
2021/11/27 08:13:48;;;;;;;90.75;32.55;;;;;;;8.54;92.65;99060.69;5049488;28;20048;-73
2021/11/27 08:16:17;;;;;;;80.35;29.38;;;;;;;8.48;93.29;99041.06;5043960;28;20021;-74
2021/11/27 08:18:42;;;;;;;74.45;28.83;;;;;;;8.52;93.03;99039.72;5043811;28;20021;-74
2021/11/27 08:21:08;;;;;;;80.10;30.92;;;;;;;8.54;93.36;99044.84;5045211;28;20330;-73
2021/11/27 08:23:34;;;;;;;70.30;29.48;;;;;;;8.64;91.87;99019.09;5054812;28;20307;-74
2021/11/27 08:26:00;;;;;;;80.25;28.88;;;;;;;8.58;91.53;99035.59;5050013;28;20055;-74
2021/11/27 08:28:28;;;;;;;87.22;32.13;;;;;;;8.54;92.62;99032.47;5045973;28;20025;-74
2021/11/27 08:30:54;;;;;;;77.30;30.67;;;;;;;8.68;92.16;99014.31;5051080;28;20063;-74
2021/11/27 08:33:19;;;;;;;87.00;36.72;;;;;;;8.67;91.36;99037.25;5043935;28;20230;-75
2021/11/27 08:35:45;;;;;;;95.07;38.00;;;;;;;8.78;91.95;99050.09;5043332;28;20037;-74
2021/11/27 08:38:11;;;;;;;79.03;31.45;;;;;;;8.84;90.07;99040.69;5044799;28;20029;-74
2021/11/27 08:40:36;;;;;;;78.63;31.63;;;;;;;8.94;90.55;99052.72;5044498;28;20060;-75
2021/11/27 08:43:02;;;;;;;80.22;32.40;;;;;;;8.94;91.27;99052.72;5044267;28;20048;-75
2021/11/27 08:45:28;;;;;;;78.93;31.92;;;;;;;9.06;90.65;99052.34;5045553;28;20057;-75
2021/11/27 08:47:54;;;;;;;81.28;31.17;;;;;;;8.92;90.82;99043.31;5046485;28;20081;-75
2021/11/27 08:50:19;;;;;;;90.03;31.00;;;;;;;8.99;89.86;99041.63;5045424;28;20116;-74
2021/11/27 08:52:45;;;;;;;87.18;31.25;;;;;;;8.96;89.74;99023.50;5045144;28;21201;-75
2021/11/27 08:55:11;;;;;;;81.82;32.35;;;;;;;8.94;90.58;99044.78;5051971;28;20071;-75
2021/11/27 08:57:37;;;;;;;79.63;31.45;;;;;;;9.00;90.61;99043.28;5063084;28;20040;-76
2021/11/27 09:00:05;;;;;;;73.95;30.08;;;;;;;9.11;89.46;99044.75;5061022;28;20028;-75
2021/11/27 09:02:31;;;;;;;72.68;28.92;;;;;;;9.13;89.96;99042.75;5052501;28;20033;-74
2021/11/27 09:04:56;;;;;;;103.57;36.63;;;;;;;9.16;90.33;99040.59;5045381;28;20060;-74
2021/11/27 09:07:21;;;;;;;72.18;30.33;;;;;;;9.08;90.30;99031.88;5050959;28;20032;-75
2021/11/27 09:09:47;;;;;;;97.45;35.97;;;;;;;9.28;88.65;99033.13;5049702;28;20346;-76
2021/11/27 09:12:15;;;;;;;86.07;31.95;;;;;;;9.18;89.02;99025.41;5050936;28;20032;-76
2021/11/27 09:14:41;;;;;;;84.60;37.47;;;;;;;9.29;88.70;99025.03;5042572;28;20029;-76
2021/11/27 09:17:07;;;;;;;80.95;31.92;;;;;;;9.40;88.33;99021.22;5056715;28;20033;-75
2021/11/27 09:19:32;;;;;;;72.32;30.10;;;;;;;9.15;88.38;99041.59;5056603;28;20299;-74
2021/11/27 09:21:58;;;;;;;88.82;33.15;;;;;;;9.00;90.15;99048.56;5057979;28;20048;-76
2021/11/27 09:24:23;;;;;;;73.85;30.52;;;;;;;8.82;91.16;99025.00;5051156;28;20036;-76
2021/11/27 09:26:50;;;;;;;76.10;32.03;;;;;;;9.05;90.51;99024.28;5059750;28;20037;-75
2021/11/27 09:29:18;;;;;;;88.10;33.25;;;;;;;9.11;89.30;99045.56;5062323;28;20044;-75
2021/11/27 09:31:44;;;;;;;83.15;35.35;;;;;;;9.20;89.12;99031.34;5053308;28;20029;-75
2021/11/27 09:34:11;;;;;;;82.78;33.15;;;;;;;9.31;88.50;99031.97;5062220;28;20221;-76
2021/11/27 09:36:39;;;;;;;88.00;37.92;;;;;;;9.41;88.20;99022.88;5062256;28;20043;-76
2021/11/27 09:39:07;;;;;;;93.80;36.75;;;;;;;9.40;88.21;99018.56;5052042;28;20082;-76
2021/11/27 09:41:34;;;;;;;86.47;35.97;;;;;;;9.44;87.65;99024.34;5051037;28;20368;-74
2021/11/27 09:44:04;;;;;;;93.82;36.17;;;;;;;9.00;89.55;99024.81;5048398;28;20303;-72
2021/11/27 09:46:32;;;;;;;182.88;52.78;;;;;;;8.52;92.08;99017.81;5053781;28;20025;-73
2021/11/27 09:49:00;;;;;;;91.57;35.30;;;;;;;8.66;91.88;99011.03;5059536;28;20099;-74
2021/11/27 09:51:28;;;;;;;90.85;36.75;;;;;;;8.62;92.45;99010.53;5061994;28;20087;-74
2021/11/27 09:53:55;;;;;;;92.78;38.95;;;;;;;8.68;92.69;99023.06;5047372;28;20057;-73
2021/11/27 09:56:22;;;;;;;83.35;34.42;;;;;;;8.78;91.85;99012.31;5043547;28;20027;-73
2021/11/27 09:58:47;;;;;;;80.68;32.58;;;;;;;8.95;92.39;99011.28;5053329;28;20021;-74
2021/11/27 10:01:16;;;;;;;87.10;35.65;;;;;;;9.25;89.00;99002.59;5061909;28;20075;-73
2021/11/27 10:03:49;;;;;;;87.75;33.22;;;;;;;9.30;87.86;99002.06;5047958;28;20037;-74
2021/11/27 10:06:17;;;;;;;183.60;52.50;;;;;;;9.25;88.64;98992.03;5053540;28;20068;-73
2021/11/27 10:08:43;;;;;;;84.80;37.17;;;;;;;9.17;88.88;98978.84;5049003;28;20033;-73
2021/11/27 10:11:08;;;;;;;83.22;37.65;;;;;;;9.37;87.19;98989.84;5044638;28;20071;-74
2021/11/27 10:13:34;;;;;;;109.43;45.17;;;;;;;9.25;88.18;98985.91;5041615;28;20037;-74
2021/11/27 10:15:59;;;;;;;140.05;54.08;;;;;;;9.38;89.00;98993.31;5042899;28;20099;-72
2021/11/27 10:18:26;;;;;;;126.40;47.92;;;;;;;9.20;89.42;99004.91;5051888;28;20249;-73
2021/11/27 10:21:18;;;;;;;105.05;42.50;;;;;;;9.05;90.20;98995.25;5061110;28;20331;-74
2021/11/27 10:23:45;;;;;;;108.68;43.03;;;;;;;9.11;89.94;98995.38;5058662;28;20037;-73
2021/11/27 10:26:31;;;;;;;126.47;51.13;;;;;;;9.40;89.49;98999.25;5052158;28;20092;-74
2021/11/27 10:29:18;;;;;;;95.57;38.80;;;;;;;9.68;86.13;98987.19;5044874;28;20025;-74
2021/11/27 10:31:47;;;;;;;84.03;37.88;;;;;;;9.53;87.21;98979.19;5054700;28;20063;-73
2021/11/27 10:34:22;;;;;;;86.53;35.55;;;;;;;9.56;87.14;98980.66;5052146;28;20100;-74
2021/11/27 10:36:48;;;;;;;86.10;35.67;;;;;;;9.45;88.10;98978.41;5055977;28;20041;-74
2021/11/27 10:39:14;;;;;;;93.68;37.65;;;;;;;9.53;87.26;98981.03;5061229;28;20033;-74
2021/11/27 10:41:57;;;;;;;88.50;36.10;;;;;;;9.68;87.36;98983.75;5054300;28;20037;-73
2021/11/27 10:44:35;;;;;;;94.70;39.92;;;;;;;9.56;87.61;98984.13;5041433;28;20152;-73
2021/11/27 10:47:17;;;;;;;83.28;36.60;;;;;;;9.73;86.14;98979.56;5042607;28;20021;-73
2021/11/27 10:49:45;;;;;;;100.75;40.28;;;;;;;9.57;87.18;98990.25;5042153;28;20056;-74
2021/11/27 10:52:19;;;;;;;93.45;37.13;;;;;;;9.48;88.12;98968.31;5042554;28;20048;-74
2021/11/27 10:54:48;;;;;;;81.28;34.33;;;;;;;9.58;87.88;98976.03;5042423;28;20041;-74
2021/11/27 10:57:30;;;;;;;87.82;36.20;;;;;;;9.52;88.51;98990.78;5042632;28;20045;-74
2021/11/27 10:59:57;;;;;;;91.85;39.00;;;;;;;9.71;88.09;98986.03;5042268;28;20038;-73
2021/11/27 11:02:30;;;;;;;80.82;36.28;;;;;;;9.47;89.59;98989.63;5044664;28;20346;-73
2021/11/27 11:05:07;;;;;;;87.25;36.33;;;;;;;9.54;88.23;98972.91;5061728;28;20267;-74
2021/11/27 11:07:33;;;;;;;86.43;36.60;;;;;;;9.65;87.62;98966.41;5060014;28;20052;-74
2021/11/27 11:10:07;;;;;;;84.82;37.25;;;;;;;9.72;87.16;98980.56;5061255;28;20032;-74
2021/11/27 11:12:50;;;;;;;91.97;40.55;;;;;;;9.88;86.79;98969.88;5061289;28;20033;-75
2021/11/27 11:15:18;;;;;;;92.35;39.75;;;;;;;9.86;86.58;98985.09;5061399;28;20201;-75
2021/11/27 11:17:45;;;;;;;95.57;39.28;;;;;;;9.71;86.95;98968.34;5061039;28;20111;-75